Terminal Aerodrome Forecast
Issued by NWS

Current Version | Previous Version | Text Only | Print | Product List | Glossary Off
Versions: 1 2 3 4 5 6 7 8 9 10 11 12 13 14 15 16 17 18 19 20 21 22 23 24 25

000
FTUS41 KRLX 221100
TAFCKB
TAF
KCKB 221139Z 2212/2312 29006KT P6SM OVC007
      TEMPO 2213/2214 4SM -RA BR SCT007 BKN012
     FM221400 31006KT P6SM OVC012
     FM222100 33006KT P6SM BKN025
     FM230400 33006KT 6SM BR BKN025
     FM230800 30005KT 4SM BR BKN020=

USA.gov is the U.S. government's official web portal to all federal, state and local government web resources and services.